»·PEaware :: SKY491 KHLN-KLVM

SKY491 :: KHLN-KLVM

FLIGHT INFORMATION

Flight Status: Arrived
Operator:
Sky High Charters
More flights by this operator :: More flights under this callsign
Pilot: David L. (16466)
Aircraft: Unknown
(SF50)
More flights by this aircraft type
Origin: KHLN Helena Regl
United States
Destination: KLVM Mission
United States
More flights between these airports :: More routes between these airports
Route: +HLN4 HLN V2 CONNS LVM
File this flight plan on PilotEdge
Remarks: SCENARIO 7
Altitude:
(Current/Filed)
11,000ft
Speed:
(Current/Filed)
250kts
Departed: 26-May-19 07:44 AM
Arrived: 26-May-19 08:25 AM
Distance/Time
Traveled:
84nm/0:40
Distance/Time
To Go:
Arrived

Flight Plot

Page will automatically refresh every two minutes.

Flight plan parsing failed; only flown route is shown


Map Options




Map Legend


Flown Route
Filed Route
Departure Airport
Arrival Airport
Navaid (VOR, NDB)
Fix

Horizontal Profiles

Position Reports

Time Latitude Longitude Heading Altitude Ground
Speed
26-May-19 07:27 46.603363 -111.997105 269 3886ft 0kts
26-May-19 07:28 46.603363 -111.997105 269 3886ft 0kts
26-May-19 07:29 46.603363 -111.997105 269 3886ft 0kts
26-May-19 07:30 46.603363 -111.997105 269 3886ft 0kts
26-May-19 07:31 46.603363 -111.997105 269 3886ft 0kts
26-May-19 07:32 46.603363 -111.997105 269 3886ft 0kts
26-May-19 07:33 46.603363 -111.997105 269 3886ft 0kts
26-May-19 07:34 46.603363 -111.997105 269 3886ft 0kts
26-May-19 07:35 46.603363 -111.997105 269 3886ft 0kts
26-May-19 07:36 46.603363 -111.997105 269 3886ft 0kts
26-May-19 07:37 46.603363 -111.997105 269 3886ft 0kts
26-May-19 07:38 46.603363 -111.997105 269 3886ft 0kts
26-May-19 07:39 46.603363 -111.997105 269 3886ft 0kts
26-May-19 07:40 46.603301 -111.991215 88 3875ft 31kts
26-May-19 07:41 46.603427 -111.976288 96 3858ft 37kts
26-May-19 07:42 46.602002 -111.963522 58 3845ft 0kts
26-May-19 07:43 46.602023 -111.963475 57 3845ft 4kts
26-May-19 07:44 46.608144 -111.986652 313 4225ft 133kts
26-May-19 07:44 46.641089 -111.977294 17 5543ft 169kts
26-May-19 07:46 46.699659 -111.970388 348 7332ft 201kts
26-May-19 07:47 46.744615 -112.005491 261 8844ft 200kts
26-May-19 07:47 46.708166 -112.015215 146 9006ft 219kts
26-May-19 07:49 46.645699 -111.968928 145 9857ft 218kts
26-May-19 07:50 46.592810 -111.936564 123 10997ft 222kts
26-May-19 07:50 46.574704 -111.866448 127 11002ft 226kts
26-May-19 07:52 46.537673 -111.773074 122 11000ft 230kts
26-May-19 07:52 46.511542 -111.705209 121 11000ft 231kts
26-May-19 07:53 46.480220 -111.624089 121 10999ft 231kts
26-May-19 07:55 46.443343 -111.528890 121 10999ft 231kts
26-May-19 07:55 46.417030 -111.461164 121 10999ft 231kts
26-May-19 07:56 46.385388 -111.379946 121 10998ft 231kts
26-May-19 07:57 46.353685 -111.298813 122 10995ft 231kts
26-May-19 07:58 46.321812 -111.217485 122 10992ft 231kts
26-May-19 07:59 46.289955 -111.136442 122 10981ft 232kts
26-May-19 08:00 46.251488 -111.063610 142 10981ft 228kts
26-May-19 08:01 46.201826 -111.006077 143 10980ft 228kts
26-May-19 08:02 46.151842 -110.949086 141 10980ft 229kts
26-May-19 08:03 46.101873 -110.892121 143 10986ft 229kts
26-May-19 08:04 46.051513 -110.835030 141 10992ft 230kts
26-May-19 08:05 46.001246 -110.778063 141 10996ft 229kts
26-May-19 08:06 45.950978 -110.721264 142 11000ft 229kts
26-May-19 08:07 45.900852 -110.664762 142 11004ft 229kts
26-May-19 08:08 45.850410 -110.608039 142 11009ft 229kts
26-May-19 08:09 45.800061 -110.551552 142 11009ft 230kts
26-May-19 08:10 45.749806 -110.495304 142 11009ft 230kts
26-May-19 08:11 45.712443 -110.427932 89 10526ft 232kts
26-May-19 08:12 45.738391 -110.339800 66 9220ft 249kts
26-May-19 08:13 45.768582 -110.253258 66 8598ft 228kts
26-May-19 08:14 45.795522 -110.175739 66 8599ft 209kts
26-May-19 08:15 45.820058 -110.105265 66 8489ft 190kts
26-May-19 08:16 45.806433 -110.055559 200 8000ft 183kts
26-May-19 08:17 45.798359 -110.123071 272 8001ft 184kts
26-May-19 08:18 45.789668 -110.192249 239 7973ft 174kts
26-May-19 08:19 45.765462 -110.261070 240 6929ft 209kts
26-May-19 08:20 45.743219 -110.324592 240 6392ft 156kts
26-May-19 08:21 45.724363 -110.378308 239 5655ft 130kts
26-May-19 08:22 45.711833 -110.417513 236 4934ft 104kts
26-May-19 08:23 45.699101 -110.443475 234 4650ft 41kts
26-May-19 08:24 45.695760 -110.451985 324 4653ft 0kts
26-May-19 08:25 45.695760 -110.451985 324 4653ft 0kts
26-May-19 08:26 45.694030 -110.454942 279 4639ft 17kts
26-May-19 08:27 45.694012 -110.455312 237 4635ft 0kts
26-May-19 08:28 45.694012 -110.455312 237 4635ft 0kts
26-May-19 08:29 45.694012 -110.455312 237 4635ft 0kts
26-May-19 08:30 45.694012 -110.455312 237 4635ft 0kts

Navigation Log

Ident Type
Flight plan parsing failed, navigation log unavailable